sensor_id;sensor_type;location;lat;lon;timestamp;temperature;humidity
28520;DHT22;15732;48.534;20.382;2023-04-24T00:01:49;9.80;99.90
28520;DHT22;15732;48.534;20.382;2023-04-24T00:04:16;10.00;99.90
28520;DHT22;15732;48.534;20.382;2023-04-24T00:06:43;10.10;99.90
28520;DHT22;15732;48.534;20.382;2023-04-24T00:09:10;10.20;99.90
28520;DHT22;15732;48.534;20.382;2023-04-24T00:11:37;10.30;99.90
28520;DHT22;15732;48.534;20.382;2023-04-24T00:14:03;10.20;99.90
28520;DHT22;15732;48.534;20.382;2023-04-24T00:16:30;10.00;99.90
28520;DHT22;15732;48.534;20.382;2023-04-24T00:18:57;9.70;99.90
28520;DHT22;15732;48.534;20.382;2023-04-24T00:21:24;9.50;99.90
28520;DHT22;15732;48.534;20.382;2023-04-24T00:23:55;9.30;99.90
28520;DHT22;15732;48.534;20.382;2023-04-24T00:26:21;9.30;99.90
28520;DHT22;15732;48.534;20.382;2023-04-24T00:28:49;9.10;99.90
28520;DHT22;15732;48.534;20.382;2023-04-24T00:31:16;9.20;99.90
28520;DHT22;15732;48.534;20.382;2023-04-24T00:33:42;9.30;99.90
28520;DHT22;15732;48.534;20.382;2023-04-24T00:36:13;9.40;99.90
28520;DHT22;15732;48.534;20.382;2023-04-24T00:38:40;9.50;99.90
28520;DHT22;15732;48.534;20.382;2023-04-24T00:41:07;9.60;99.90
28520;DHT22;15732;48.534;20.382;2023-04-24T00:43:38;9.70;99.90
28520;DHT22;15732;48.534;20.382;2023-04-24T00:46:08;9.60;99.90
28520;DHT22;15732;48.534;20.382;2023-04-24T00:48:39;9.40;99.90
28520;DHT22;15732;48.534;20.382;2023-04-24T00:51:06;9.30;99.90
28520;DHT22;15732;48.534;20.382;2023-04-24T00:53:33;9.30;99.90
28520;DHT22;15732;48.534;20.382;2023-04-24T00:56:01;9.30;99.90
28520;DHT22;15732;48.534;20.382;2023-04-24T00:58:28;9.40;99.90
28520;DHT22;15732;48.534;20.382;2023-04-24T01:00:55;9.40;99.90
28520;DHT22;15732;48.534;20.382;2023-04-24T01:03:24;9.40;99.90
28520;DHT22;15732;48.534;20.382;2023-04-24T01:05:52;9.40;99.90
28520;DHT22;15732;48.534;20.382;2023-04-24T01:08:24;9.30;99.90
28520;DHT22;15732;48.534;20.382;2023-04-24T01:10:54;8.90;99.90
28520;DHT22;15732;48.534;20.382;2023-04-24T01:13:22;8.90;99.90
28520;DHT22;15732;48.534;20.382;2023-04-24T01:15:49;8.90;99.90
28520;DHT22;15732;48.534;20.382;2023-04-24T01:18:19;8.90;99.90
28520;DHT22;15732;48.534;20.382;2023-04-24T01:20:51;8.80;99.90
28520;DHT22;15732;48.534;20.382;2023-04-24T01:23:19;8.80;99.90
28520;DHT22;15732;48.534;20.382;2023-04-24T01:25:45;8.70;99.90
28520;DHT22;15732;48.534;20.382;2023-04-24T01:28:12;8.90;99.90
28520;DHT22;15732;48.534;20.382;2023-04-24T01:30:40;8.80;99.90
28520;DHT22;15732;48.534;20.382;2023-04-24T01:33:10;8.70;99.90
28520;DHT22;15732;48.534;20.382;2023-04-24T01:35:40;8.60;99.90
28520;DHT22;15732;48.534;20.382;2023-04-24T01:38:07;8.70;99.90
28520;DHT22;15732;48.534;20.382;2023-04-24T01:40:34;8.60;99.90
28520;DHT22;15732;48.534;20.382;2023-04-24T01:43:05;8.40;99.90
28520;DHT22;15732;48.534;20.382;2023-04-24T01:45:35;8.30;99.90
28520;DHT22;15732;48.534;20.382;2023-04-24T01:48:02;8.30;99.90
28520;DHT22;15732;48.534;20.382;2023-04-24T01:50:29;8.10;99.90
28520;DHT22;15732;48.534;20.382;2023-04-24T01:52:56;8.20;99.90
28520;DHT22;15732;48.534;20.382;2023-04-24T01:55:23;8.10;99.90
28520;DHT22;15732;48.534;20.382;2023-04-24T01:57:55;8.00;99.90
28520;DHT22;15732;48.534;20.382;2023-04-24T02:00:22;8.10;99.90
28520;DHT22;15732;48.534;20.382;2023-04-24T02:02:50;8.10;99.90
28520;DHT22;15732;48.534;20.382;2023-04-24T02:05:16;8.20;99.90
28520;DHT22;15732;48.534;20.382;2023-04-24T02:07:43;8.10;99.90
28520;DHT22;15732;48.534;20.382;2023-04-24T02:10:10;8.20;99.90
28520;DHT22;15732;48.534;20.382;2023-04-24T02:12:37;8.30;99.90
28520;DHT22;15732;48.534;20.382;2023-04-24T02:15:08;8.20;99.90
28520;DHT22;15732;48.534;20.382;2023-04-24T02:17:35;8.30;99.90
28520;DHT22;15732;48.534;20.382;2023-04-24T02:20:02;8.20;99.90
28520;DHT22;15732;48.534;20.382;2023-04-24T02:22:29;8.20;99.90
28520;DHT22;15732;48.534;20.382;2023-04-24T02:24:56;8.00;99.90
28520;DHT22;15732;48.534;20.382;2023-04-24T02:27:27;8.00;99.90
28520;DHT22;15732;48.534;20.382;2023-04-24T02:29:57;7.90;99.90
28520;DHT22;15732;48.534;20.382;2023-04-24T02:32:24;7.90;99.90
28520;DHT22;15732;48.534;20.382;2023-04-24T02:34:51;7.80;99.90
28520;DHT22;15732;48.534;20.382;2023-04-24T02:37:17;7.80;99.90
28520;DHT22;15732;48.534;20.382;2023-04-24T02:39:44;7.80;99.90
28520;DHT22;15732;48.534;20.382;2023-04-24T02:42:11;7.80;99.90
28520;DHT22;15732;48.534;20.382;2023-04-24T02:44:38;7.70;99.90
28520;DHT22;15732;48.534;20.382;2023-04-24T02:47:04;7.70;99.90
28520;DHT22;15732;48.534;20.382;2023-04-24T02:49:31;7.70;99.90
28520;DHT22;15732;48.534;20.382;2023-04-24T02:51:58;7.50;99.90
28520;DHT22;15732;48.534;20.382;2023-04-24T02:54:25;7.40;99.90
28520;DHT22;15732;48.534;20.382;2023-04-24T02:56:52;7.40;99.90
28520;DHT22;15732;48.534;20.382;2023-04-24T02:59:18;7.30;99.90
28520;DHT22;15732;48.534;20.382;2023-04-24T03:01:45;7.30;99.90
28520;DHT22;15732;48.534;20.382;2023-04-24T03:04:12;7.30;99.90
28520;DHT22;15732;48.534;20.382;2023-04-24T03:06:39;7.40;99.90
28520;DHT22;15732;48.534;20.382;2023-04-24T03:09:06;7.30;99.90
28520;DHT22;15732;48.534;20.382;2023-04-24T03:11:32;7.40;99.90
28520;DHT22;15732;48.534;20.382;2023-04-24T03:14:03;7.30;99.90
28520;DHT22;15732;48.534;20.382;2023-04-24T03:16:30;7.20;99.90
28520;DHT22;15732;48.534;20.382;2023-04-24T03:18:57;7.20;99.90
28520;DHT22;15732;48.534;20.382;2023-04-24T03:21:24;7.10;99.90
28520;DHT22;15732;48.534;20.382;2023-04-24T03:23:50;7.20;99.90
28520;DHT22;15732;48.534;20.382;2023-04-24T03:26:17;7.20;99.90
28520;DHT22;15732;48.534;20.382;2023-04-24T03:28:44;7.40;99.90
28520;DHT22;15732;48.534;20.382;2023-04-24T03:31:11;7.60;99.90
28520;DHT22;15732;48.534;20.382;2023-04-24T03:33:37;7.80;99.90
28520;DHT22;15732;48.534;20.382;2023-04-24T03:36:04;7.80;99.90
28520;DHT22;15732;48.534;20.382;2023-04-24T03:38:31;7.80;99.90
28520;DHT22;15732;48.534;20.382;2023-04-24T03:40:58;7.60;99.90
28520;DHT22;15732;48.534;20.382;2023-04-24T03:43:24;7.60;99.90
28520;DHT22;15732;48.534;20.382;2023-04-24T03:45:55;7.40;99.90
28520;DHT22;15732;48.534;20.382;2023-04-24T03:48:22;7.40;99.90
28520;DHT22;15732;48.534;20.382;2023-04-24T03:50:49;7.20;99.90
28520;DHT22;15732;48.534;20.382;2023-04-24T03:53:19;7.10;99.90
28520;DHT22;15732;48.534;20.382;2023-04-24T03:55:46;7.30;99.90
28520;DHT22;15732;48.534;20.382;2023-04-24T03:58:13;7.30;99.90
28520;DHT22;15732;48.534;20.382;2023-04-24T04:00:40;7.30;99.90
28520;DHT22;15732;48.534;20.382;2023-04-24T04:03:07;7.20;99.90
28520;DHT22;15732;48.534;20.382;2023-04-24T04:05:34;7.20;99.90
28520;DHT22;15732;48.534;20.382;2023-04-24T04:08:01;7.20;99.90
28520;DHT22;15732;48.534;20.382;2023-04-24T04:10:28;7.10;99.90
28520;DHT22;15732;48.534;20.382;2023-04-24T04:12:54;7.00;99.90
28520;DHT22;15732;48.534;20.382;2023-04-24T04:15:25;6.90;99.90
28520;DHT22;15732;48.534;20.382;2023-04-24T04:17:52;6.90;99.90
28520;DHT22;15732;48.534;20.382;2023-04-24T04:20:19;6.90;99.90
28520;DHT22;15732;48.534;20.382;2023-04-24T04:22:46;6.90;99.90
28520;DHT22;15732;48.534;20.382;2023-04-24T04:25:12;6.90;99.90
28520;DHT22;15732;48.534;20.382;2023-04-24T04:27:39;7.00;99.90
28520;DHT22;15732;48.534;20.382;2023-04-24T04:30:07;7.10;99.90
28520;DHT22;15732;48.534;20.382;2023-04-24T04:32:35;7.10;99.90
28520;DHT22;15732;48.534;20.382;2023-04-24T04:35:03;7.10;99.90
28520;DHT22;15732;48.534;20.382;2023-04-24T04:37:30;7.10;99.90
28520;DHT22;15732;48.534;20.382;2023-04-24T04:39:57;7.30;99.90
28520;DHT22;15732;48.534;20.382;2023-04-24T04:42:24;7.30;99.90
28520;DHT22;15732;48.534;20.382;2023-04-24T04:44:51;7.40;99.90
28520;DHT22;15732;48.534;20.382;2023-04-24T04:47:23;7.30;99.90
28520;DHT22;15732;48.534;20.382;2023-04-24T04:49:50;7.50;99.90
28520;DHT22;15732;48.534;20.382;2023-04-24T04:52:18;7.60;99.90
28520;DHT22;15732;48.534;20.382;2023-04-24T04:54:45;7.70;99.90
28520;DHT22;15732;48.534;20.382;2023-04-24T04:57:12;7.80;99.90
28520;DHT22;15732;48.534;20.382;2023-04-24T04:59:39;7.90;99.90
28520;DHT22;15732;48.534;20.382;2023-04-24T05:02:07;8.00;99.90
28520;DHT22;15732;48.534;20.382;2023-04-24T05:04:34;8.00;99.90
28520;DHT22;15732;48.534;20.382;2023-04-24T05:07:00;8.10;99.90
28520;DHT22;15732;48.534;20.382;2023-04-24T05:09:27;8.20;99.90
28520;DHT22;15732;48.534;20.382;2023-04-24T05:11:58;8.30;99.90
28520;DHT22;15732;48.534;20.382;2023-04-24T05:14:24;8.40;99.90
28520;DHT22;15732;48.534;20.382;2023-04-24T05:16:51;8.60;99.90
28520;DHT22;15732;48.534;20.382;2023-04-24T05:19:18;8.70;99.90
28520;DHT22;15732;48.534;20.382;2023-04-24T05:21:49;8.80;99.90
28520;DHT22;15732;48.534;20.382;2023-04-24T05:24:15;8.80;99.90
28520;DHT22;15732;48.534;20.382;2023-04-24T05:26:42;8.70;99.90
28520;DHT22;15732;48.534;20.382;2023-04-24T05:29:09;8.80;99.90
28520;DHT22;15732;48.534;20.382;2023-04-24T05:31:36;8.90;99.90
28520;DHT22;15732;48.534;20.382;2023-04-24T05:34:06;9.00;99.90
28520;DHT22;15732;48.534;20.382;2023-04-24T05:36:33;9.00;99.90
28520;DHT22;15732;48.534;20.382;2023-04-24T05:39:00;9.10;99.90
28520;DHT22;15732;48.534;20.382;2023-04-24T05:41:27;9.30;99.90
28520;DHT22;15732;48.534;20.382;2023-04-24T05:43:54;9.40;99.90
28520;DHT22;15732;48.534;20.382;2023-04-24T05:46:20;9.40;99.90
28520;DHT22;15732;48.534;20.382;2023-04-24T05:48:47;9.50;99.90
28520;DHT22;15732;48.534;20.382;2023-04-24T05:51:14;9.40;99.90
28520;DHT22;15732;48.534;20.382;2023-04-24T05:53:44;9.40;99.90
28520;DHT22;15732;48.534;20.382;2023-04-24T05:56:11;9.50;99.90
28520;DHT22;15732;48.534;20.382;2023-04-24T05:58:38;9.50;99.90
28520;DHT22;15732;48.534;20.382;2023-04-24T06:01:09;9.50;99.90
28520;DHT22;15732;48.534;20.382;2023-04-24T06:03:36;9.50;99.90
28520;DHT22;15732;48.534;20.382;2023-04-24T06:06:07;9.60;99.90
28520;DHT22;15732;48.534;20.382;2023-04-24T06:08:33;9.60;99.90
28520;DHT22;15732;48.534;20.382;2023-04-24T06:10:59;9.60;99.90
28520;DHT22;15732;48.534;20.382;2023-04-24T06:13:26;9.70;99.90
28520;DHT22;15732;48.534;20.382;2023-04-24T06:15:53;9.80;99.90
28520;DHT22;15732;48.534;20.382;2023-04-24T06:18:20;9.80;99.90
28520;DHT22;15732;48.534;20.382;2023-04-24T06:20:47;9.90;99.90
28520;DHT22;15732;48.534;20.382;2023-04-24T06:23:13;9.90;99.90
28520;DHT22;15732;48.534;20.382;2023-04-24T06:25:40;9.90;99.90
28520;DHT22;15732;48.534;20.382;2023-04-24T06:28:07;10.00;99.90
28520;DHT22;15732;48.534;20.382;2023-04-24T06:30:33;10.00;99.90
28520;DHT22;15732;48.534;20.382;2023-04-24T06:33:00;10.10;99.90
28520;DHT22;15732;48.534;20.382;2023-04-24T06:35:27;10.20;99.90
28520;DHT22;15732;48.534;20.382;2023-04-24T06:37:54;10.30;99.90
28520;DHT22;15732;48.534;20.382;2023-04-24T06:40:22;10.40;99.90
28520;DHT22;15732;48.534;20.382;2023-04-24T06:42:49;10.60;99.90
28520;DHT22;15732;48.534;20.382;2023-04-24T06:45:15;10.70;99.90
28520;DHT22;15732;48.534;20.382;2023-04-24T06:47:42;10.90;99.90
28520;DHT22;15732;48.534;20.382;2023-04-24T06:50:09;11.10;99.90
28520;DHT22;15732;48.534;20.382;2023-04-24T06:52:37;11.20;99.90
28520;DHT22;15732;48.534;20.382;2023-04-24T06:55:04;11.30;99.90
28520;DHT22;15732;48.534;20.382;2023-04-24T06:57:30;11.40;99.90
28520;DHT22;15732;48.534;20.382;2023-04-24T07:00:01;11.50;99.90
28520;DHT22;15732;48.534;20.382;2023-04-24T07:02:29;11.50;99.90
28520;DHT22;15732;48.534;20.382;2023-04-24T07:04:56;11.60;99.90
28520;DHT22;15732;48.534;20.382;2023-04-24T07:07:27;11.70;99.90
28520;DHT22;15732;48.534;20.382;2023-04-24T07:09:53;11.80;99.90
28520;DHT22;15732;48.534;20.382;2023-04-24T07:12:22;11.90;99.90
28520;DHT22;15732;48.534;20.382;2023-04-24T07:14:53;12.00;99.90
28520;DHT22;15732;48.534;20.382;2023-04-24T07:17:24;12.10;99.90
28520;DHT22;15732;48.534;20.382;2023-04-24T07:19:51;12.20;99.90
28520;DHT22;15732;48.534;20.382;2023-04-24T07:22:21;12.30;99.90
28520;DHT22;15732;48.534;20.382;2023-04-24T07:24:48;12.40;99.90
28520;DHT22;15732;48.534;20.382;2023-04-24T07:27:19;12.40;99.90
28520;DHT22;15732;48.534;20.382;2023-04-24T07:29:46;12.50;99.90
28520;DHT22;15732;48.534;20.382;2023-04-24T07:32:13;12.60;99.90
28520;DHT22;15732;48.534;20.382;2023-04-24T07:34:40;12.60;99.90
28520;DHT22;15732;48.534;20.382;2023-04-24T07:37:06;12.70;99.90
28520;DHT22;15732;48.534;20.382;2023-04-24T07:39:33;12.80;99.90
28520;DHT22;15732;48.534;20.382;2023-04-24T07:42:00;12.90;99.90
28520;DHT22;15732;48.534;20.382;2023-04-24T07:44:27;12.90;99.90
28520;DHT22;15732;48.534;20.382;2023-04-24T07:46:58;13.00;99.90
28520;DHT22;15732;48.534;20.382;2023-04-24T07:49:28;13.10;99.90
28520;DHT22;15732;48.534;20.382;2023-04-24T07:51:55;13.10;99.90
28520;DHT22;15732;48.534;20.382;2023-04-24T07:54:22;13.20;99.90
28520;DHT22;15732;48.534;20.382;2023-04-24T07:56:49;13.30;99.90
28520;DHT22;15732;48.534;20.382;2023-04-24T07:59:16;13.40;99.90
28520;DHT22;15732;48.534;20.382;2023-04-24T08:01:43;13.50;99.90
28520;DHT22;15732;48.534;20.382;2023-04-24T08:04:09;13.60;99.90
28520;DHT22;15732;48.534;20.382;2023-04-24T08:06:36;13.70;99.90
28520;DHT22;15732;48.534;20.382;2023-04-24T08:09:07;13.70;99.90
28520;DHT22;15732;48.534;20.382;2023-04-24T08:11:34;13.90;99.90
28520;DHT22;15732;48.534;20.382;2023-04-24T08:14:01;14.00;99.90
28520;DHT22;15732;48.534;20.382;2023-04-24T08:16:32;14.00;99.90
28520;DHT22;15732;48.534;20.382;2023-04-24T08:18:58;14.10;99.90
28520;DHT22;15732;48.534;20.382;2023-04-24T08:21:29;14.20;99.90
28520;DHT22;15732;48.534;20.382;2023-04-24T08:23:56;14.30;99.90
28520;DHT22;15732;48.534;20.382;2023-04-24T08:26:27;14.50;99.90
28520;DHT22;15732;48.534;20.382;2023-04-24T08:28:54;14.50;99.90
28520;DHT22;15732;48.534;20.382;2023-04-24T08:31:20;14.60;99.90
28520;DHT22;15732;48.534;20.382;2023-04-24T08:33:48;14.70;99.90
28520;DHT22;15732;48.534;20.382;2023-04-24T08:36:19;14.80;99.90
28520;DHT22;15732;48.534;20.382;2023-04-24T08:38:46;14.80;99.90
28520;DHT22;15732;48.534;20.382;2023-04-24T08:41:13;14.80;99.90
28520;DHT22;15732;48.534;20.382;2023-04-24T08:43:40;14.80;99.90
28520;DHT22;15732;48.534;20.382;2023-04-24T08:46:11;14.80;99.90
28520;DHT22;15732;48.534;20.382;2023-04-24T08:48:39;14.80;99.90
28520;DHT22;15732;48.534;20.382;2023-04-24T08:51:07;14.70;99.90
28520;DHT22;15732;48.534;20.382;2023-04-24T08:53:34;14.70;99.90
28520;DHT22;15732;48.534;20.382;2023-04-24T08:56:01;14.70;99.90
28520;DHT22;15732;48.534;20.382;2023-04-24T08:58:32;14.70;99.90
28520;DHT22;15732;48.534;20.382;2023-04-24T09:00:59;14.70;99.90
28520;DHT22;15732;48.534;20.382;2023-04-24T09:03:27;14.70;99.90
28520;DHT22;15732;48.534;20.382;2023-04-24T09:05:53;14.70;99.90
28520;DHT22;15732;48.534;20.382;2023-04-24T09:08:22;14.70;99.90
28520;DHT22;15732;48.534;20.382;2023-04-24T09:10:50;14.70;99.90
28520;DHT22;15732;48.534;20.382;2023-04-24T09:13:17;14.70;99.90
28520;DHT22;15732;48.534;20.382;2023-04-24T09:15:44;14.60;99.90
28520;DHT22;15732;48.534;20.382;2023-04-24T09:18:11;14.70;99.90
28520;DHT22;15732;48.534;20.382;2023-04-24T09:21:00;14.60;99.90
28520;DHT22;15732;48.534;20.382;2023-04-24T09:23:42;14.60;99.90
28520;DHT22;15732;48.534;20.382;2023-04-24T09:26:13;14.60;99.90
28520;DHT22;15732;48.534;20.382;2023-04-24T09:28:41;14.60;99.90
28520;DHT22;15732;48.534;20.382;2023-04-24T09:31:17;14.60;99.90
28520;DHT22;15732;48.534;20.382;2023-04-24T09:33:54;14.60;99.90
28520;DHT22;15732;48.534;20.382;2023-04-24T09:36:32;14.60;99.90
28520;DHT22;15732;48.534;20.382;2023-04-24T09:39:04;14.50;99.90
28520;DHT22;15732;48.534;20.382;2023-04-24T09:41:50;14.50;99.90
28520;DHT22;15732;48.534;20.382;2023-04-24T09:44:22;14.50;99.90
28520;DHT22;15732;48.534;20.382;2023-04-24T09:46:56;14.60;99.90
28520;DHT22;15732;48.534;20.382;2023-04-24T09:49:23;14.60;99.90
28520;DHT22;15732;48.534;20.382;2023-04-24T09:52:08;14.60;99.90
28520;DHT22;15732;48.534;20.382;2023-04-24T09:54:39;14.60;99.90
28520;DHT22;15732;48.534;20.382;2023-04-24T09:57:14;14.60;99.90
28520;DHT22;15732;48.534;20.382;2023-04-24T09:59:45;14.60;99.90
28520;DHT22;15732;48.534;20.382;2023-04-24T10:02:18;14.60;99.90
28520;DHT22;15732;48.534;20.382;2023-04-24T10:04:56;14.60;99.90
28520;DHT22;15732;48.534;20.382;2023-04-24T10:07:25;14.60;99.90
28520;DHT22;15732;48.534;20.382;2023-04-24T10:09:52;14.60;99.90
28520;DHT22;15732;48.534;20.382;2023-04-24T10:12:18;14.60;99.90
28520;DHT22;15732;48.534;20.382;2023-04-24T10:14:49;14.60;99.90
28520;DHT22;15732;48.534;20.382;2023-04-24T10:17:20;14.60;99.90
28520;DHT22;15732;48.534;20.382;2023-04-24T10:19:47;14.60;99.90
28520;DHT22;15732;48.534;20.382;2023-04-24T10:22:14;14.60;99.90
28520;DHT22;15732;48.534;20.382;2023-04-24T10:24:43;14.60;99.90
28520;DHT22;15732;48.534;20.382;2023-04-24T10:27:10;14.60;99.90
28520;DHT22;15732;48.534;20.382;2023-04-24T10:29:37;14.60;99.90
28520;DHT22;15732;48.534;20.382;2023-04-24T10:32:06;14.60;99.90
28520;DHT22;15732;48.534;20.382;2023-04-24T10:34:33;14.60;99.90
28520;DHT22;15732;48.534;20.382;2023-04-24T10:37:00;14.60;99.90
28520;DHT22;15732;48.534;20.382;2023-04-24T10:39:26;14.60;99.90
28520;DHT22;15732;48.534;20.382;2023-04-24T10:41:54;14.60;99.90
28520;DHT22;15732;48.534;20.382;2023-04-24T10:44:23;14.60;99.90
28520;DHT22;15732;48.534;20.382;2023-04-24T10:46:54;14.60;99.90
28520;DHT22;15732;48.534;20.382;2023-04-24T10:49:30;14.60;99.90
28520;DHT22;15732;48.534;20.382;2023-04-24T10:52:00;14.60;99.90
28520;DHT22;15732;48.534;20.382;2023-04-24T10:54:28;14.60;99.90
28520;DHT22;15732;48.534;20.382;2023-04-24T10:59:42;14.60;99.90
28520;DHT22;15732;48.534;20.382;2023-04-24T11:02:09;14.60;99.90
28520;DHT22;15732;48.534;20.382;2023-04-24T11:04:36;14.60;99.90
28520;DHT22;15732;48.534;20.382;2023-04-24T11:07:03;14.60;99.90
28520;DHT22;15732;48.534;20.382;2023-04-24T11:09:34;14.70;99.90
28520;DHT22;15732;48.534;20.382;2023-04-24T11:12:08;14.70;99.90
28520;DHT22;15732;48.534;20.382;2023-04-24T11:17:31;14.70;99.90
28520;DHT22;15732;48.534;20.382;2023-04-24T11:20:05;14.80;99.90
28520;DHT22;15732;48.534;20.382;2023-04-24T11:22:33;14.80;99.90
28520;DHT22;15732;48.534;20.382;2023-04-24T11:25:03;14.80;99.90
28520;DHT22;15732;48.534;20.382;2023-04-24T11:27:31;14.80;99.90
28520;DHT22;15732;48.534;20.382;2023-04-24T11:29:59;14.80;99.90
28520;DHT22;15732;48.534;20.382;2023-04-24T11:32:27;14.80;99.90
28520;DHT22;15732;48.534;20.382;2023-04-24T11:34:57;14.70;99.90
28520;DHT22;15732;48.534;20.382;2023-04-24T11:37:25;14.70;99.90
28520;DHT22;15732;48.534;20.382;2023-04-24T11:39:56;14.80;99.90
28520;DHT22;15732;48.534;20.382;2023-04-24T11:42:23;14.70;99.90
28520;DHT22;15732;48.534;20.382;2023-04-24T11:44:51;14.70;99.90
28520;DHT22;15732;48.534;20.382;2023-04-24T11:47:32;14.70;99.90
28520;DHT22;15732;48.534;20.382;2023-04-24T11:50:11;14.60;99.90
28520;DHT22;15732;48.534;20.382;2023-04-24T11:52:39;14.60;99.90
28520;DHT22;15732;48.534;20.382;2023-04-24T11:55:07;14.60;99.90
28520;DHT22;15732;48.534;20.382;2023-04-24T11:57:35;14.60;99.90
28520;DHT22;15732;48.534;20.382;2023-04-24T12:00:05;14.60;99.90
28520;DHT22;15732;48.534;20.382;2023-04-24T12:02:34;14.60;99.90
28520;DHT22;15732;48.534;20.382;2023-04-24T12:05:01;14.60;99.90
28520;DHT22;15732;48.534;20.382;2023-04-24T12:07:27;14.50;99.90
28520;DHT22;15732;48.534;20.382;2023-04-24T12:09:58;14.50;99.90
28520;DHT22;15732;48.534;20.382;2023-04-24T12:12:26;14.50;99.90
28520;DHT22;15732;48.534;20.382;2023-04-24T12:14:53;14.50;99.90
28520;DHT22;15732;48.534;20.382;2023-04-24T12:17:30;14.50;99.90
28520;DHT22;15732;48.534;20.382;2023-04-24T12:20:02;14.50;99.90
28520;DHT22;15732;48.534;20.382;2023-04-24T12:25:14;14.50;99.90
28520;DHT22;15732;48.534;20.382;2023-04-24T12:27:46;14.40;99.90
28520;DHT22;15732;48.534;20.382;2023-04-24T12:30:14;14.40;99.90
28520;DHT22;15732;48.534;20.382;2023-04-24T12:32:42;14.40;99.90
28520;DHT22;15732;48.534;20.382;2023-04-24T12:35:08;14.40;99.90
28520;DHT22;15732;48.534;20.382;2023-04-24T12:37:35;14.40;99.90
28520;DHT22;15732;48.534;20.382;2023-04-24T12:40:03;14.30;99.90
28520;DHT22;15732;48.534;20.382;2023-04-24T12:42:33;14.30;99.90
28520;DHT22;15732;48.534;20.382;2023-04-24T12:45:06;14.30;99.90
28520;DHT22;15732;48.534;20.382;2023-04-24T12:47:34;14.20;99.90
28520;DHT22;15732;48.534;20.382;2023-04-24T12:50:05;14.10;99.90
28520;DHT22;15732;48.534;20.382;2023-04-24T12:52:32;14.00;99.90
28520;DHT22;15732;48.534;20.382;2023-04-24T12:54:59;13.90;99.90
28520;DHT22;15732;48.534;20.382;2023-04-24T12:57:27;13.80;99.90
28520;DHT22;15732;48.534;20.382;2023-04-24T12:59:54;13.70;99.90
28520;DHT22;15732;48.534;20.382;2023-04-24T13:02:21;13.70;99.90
28520;DHT22;15732;48.534;20.382;2023-04-24T13:04:48;13.60;99.90
28520;DHT22;15732;48.534;20.382;2023-04-24T13:07:19;13.60;99.90
28520;DHT22;15732;48.534;20.382;2023-04-24T13:09:47;13.60;99.90
28520;DHT22;15732;48.534;20.382;2023-04-24T13:12:14;13.60;99.90
28520;DHT22;15732;48.534;20.382;2023-04-24T13:14:40;13.50;99.90
28520;DHT22;15732;48.534;20.382;2023-04-24T13:17:15;13.50;99.90
28520;DHT22;15732;48.534;20.382;2023-04-24T13:19:59;13.40;99.90
28520;DHT22;15732;48.534;20.382;2023-04-24T13:22:29;13.50;99.90
28520;DHT22;15732;48.534;20.382;2023-04-24T13:24:59;13.40;99.90
28520;DHT22;15732;48.534;20.382;2023-04-24T13:27:31;13.30;99.90
28520;DHT22;15732;48.534;20.382;2023-04-24T13:30:06;13.40;99.90
28520;DHT22;15732;48.534;20.382;2023-04-24T13:32:33;13.40;99.90
28520;DHT22;15732;48.534;20.382;2023-04-24T13:35:01;13.40;99.90
28520;DHT22;15732;48.534;20.382;2023-04-24T13:37:28;13.40;99.90
28520;DHT22;15732;48.534;20.382;2023-04-24T13:39:54;13.50;99.90
28520;DHT22;15732;48.534;20.382;2023-04-24T13:42:25;13.50;99.90
28520;DHT22;15732;48.534;20.382;2023-04-24T13:44:51;13.60;99.90
28520;DHT22;15732;48.534;20.382;2023-04-24T13:47:20;13.60;99.90
28520;DHT22;15732;48.534;20.382;2023-04-24T13:49:46;13.60;99.90
28520;DHT22;15732;48.534;20.382;2023-04-24T13:52:13;13.70;99.90
28520;DHT22;15732;48.534;20.382;2023-04-24T13:54:40;13.70;99.90
28520;DHT22;15732;48.534;20.382;2023-04-24T13:57:07;13.70;99.90
28520;DHT22;15732;48.534;20.382;2023-04-24T13:59:34;13.70;99.90
28520;DHT22;15732;48.534;20.382;2023-04-24T14:02:01;13.70;99.90
28520;DHT22;15732;48.534;20.382;2023-04-24T14:04:28;13.60;99.90
28520;DHT22;15732;48.534;20.382;2023-04-24T14:06:54;13.60;99.90
28520;DHT22;15732;48.534;20.382;2023-04-24T14:09:22;13.60;99.90
28520;DHT22;15732;48.534;20.382;2023-04-24T14:11:48;13.60;99.90
28520;DHT22;15732;48.534;20.382;2023-04-24T14:14:15;13.60;99.90
28520;DHT22;15732;48.534;20.382;2023-04-24T14:16:42;13.60;99.90
28520;DHT22;15732;48.534;20.382;2023-04-24T14:19:09;13.60;99.90
28520;DHT22;15732;48.534;20.382;2023-04-24T14:21:35;13.60;99.90
28520;DHT22;15732;48.534;20.382;2023-04-24T14:24:02;13.60;99.90
28520;DHT22;15732;48.534;20.382;2023-04-24T14:26:29;13.60;99.90
28520;DHT22;15732;48.534;20.382;2023-04-24T14:28:56;13.60;99.90
28520;DHT22;15732;48.534;20.382;2023-04-24T14:31:24;13.60;99.90
28520;DHT22;15732;48.534;20.382;2023-04-24T14:33:51;13.50;99.90
28520;DHT22;15732;48.534;20.382;2023-04-24T14:36:17;13.60;99.90
28520;DHT22;15732;48.534;20.382;2023-04-24T14:38:44;13.50;99.90
28520;DHT22;15732;48.534;20.382;2023-04-24T14:41:11;13.50;99.90
28520;DHT22;15732;48.534;20.382;2023-04-24T14:43:38;13.50;99.90
28520;DHT22;15732;48.534;20.382;2023-04-24T14:46:04;13.50;99.90
28520;DHT22;15732;48.534;20.382;2023-04-24T14:48:31;13.50;99.90
28520;DHT22;15732;48.534;20.382;2023-04-24T14:51:02;13.50;99.90
28520;DHT22;15732;48.534;20.382;2023-04-24T14:53:33;13.50;99.90
28520;DHT22;15732;48.534;20.382;2023-04-24T14:56:00;13.50;99.90
28520;DHT22;15732;48.534;20.382;2023-04-24T14:58:26;13.50;99.90
28520;DHT22;15732;48.534;20.382;2023-04-24T15:00:53;13.50;99.90
28520;DHT22;15732;48.534;20.382;2023-04-24T15:03:20;13.50;99.90
28520;DHT22;15732;48.534;20.382;2023-04-24T15:05:48;13.50;99.90
28520;DHT22;15732;48.534;20.382;2023-04-24T15:08:14;13.40;99.90
28520;DHT22;15732;48.534;20.382;2023-04-24T15:10:45;13.40;99.90
28520;DHT22;15732;48.534;20.382;2023-04-24T15:13:11;13.40;99.90
28520;DHT22;15732;48.534;20.382;2023-04-24T15:15:38;13.40;99.90
28520;DHT22;15732;48.534;20.382;2023-04-24T15:18:05;13.40;99.90
28520;DHT22;15732;48.534;20.382;2023-04-24T15:20:31;13.40;99.90
28520;DHT22;15732;48.534;20.382;2023-04-24T15:22:58;13.40;99.90
28520;DHT22;15732;48.534;20.382;2023-04-24T15:25:26;13.40;99.90
28520;DHT22;15732;48.534;20.382;2023-04-24T15:27:57;13.40;99.90
28520;DHT22;15732;48.534;20.382;2023-04-24T15:30:25;13.50;99.90
28520;DHT22;15732;48.534;20.382;2023-04-24T15:32:51;13.40;99.90
28520;DHT22;15732;48.534;20.382;2023-04-24T15:35:18;13.50;99.90
28520;DHT22;15732;48.534;20.382;2023-04-24T15:37:45;13.40;99.90